• Join FlightAware (Why Join?)
  • Login
  • US Flag 
03:23AM EDT


 

Airport Tracker/Info


-or-


 

Live Flight TrackerFlight Track Log ✈ AAL297 ✈ 02-May-2013 ✈ KLAX - PHNL

Flight Track Log - Related Links

Times and Time Zones

All times are in EDT time to prevent confusion due to time zone crossing. See the AAL297 flight status page for this flight to view local times or setup timezone preferences in your user account.

Time Position Orientation Groundspeed Altitude Reporting Facility
EDT Latitude Longitude Course Direction KTS MPH feet Rate Location/Type
07:46PM 33.9460 -118.4480 262° West 167 192 1,200  Level FlightAware
07:46PM 33.9430 -118.4780 263° West 204 235 1,800 1,200 Climbing FlightAware
07:47PM 33.9400 -118.5160 265° West 241 277 2,400 1,320 Climbing FlightAware
07:47PM 33.9390 -118.5290 265° West 252 290 2,700 2,100 Climbing FlightAware
07:48PM 33.9350 -118.5740 264° West 265 305 3,800 2,160 Climbing FlightAware
07:48PM 33.9310 -118.6180 264° West 273 314 4,900 2,160 Climbing FlightAware
07:48PM 33.9270 -118.6530 262° West 279 321 5,800 2,280 Climbing FlightAware
07:49PM 33.9210 -118.7030 262° West 286 329 7,000 2,280 Climbing FlightAware
07:49PM 33.9170 -118.7430 263° West 290 334 7,900 2,040 Climbing FlightAware
07:50PM 33.9120 -118.7890 263° West 298 343 8,900 2,100 Climbing FlightAware
07:51PM 33.9040 -118.8700 263° West 312 359 10,400 2,100 Climbing FlightAware
07:51PM 33.8960 -118.9530 263° West 334 384 11,900 2,220 Climbing FlightAware
07:52PM 33.8890 -119.0270 264° West 337 388 13,600 2,580 Climbing FlightAware
07:53PM 33.8820 -119.1010 264° West 336 387 15,400 2,280 Climbing FlightAware
07:53PM 33.8730 -119.1830 262° West 350 403 16,900 1,680 Climbing FlightAware
07:54PM 33.8640 -119.2690 263° West 381 438 17,800 1,500 Climbing FlightAware
07:55PM 33.8560 -119.3470 263° West 391 450 18,900 1,800 Climbing FlightAware
07:55PM 33.8480 -119.4270 263° West 401 461 20,100 1,500 Climbing FlightAware
07:56PM 33.8360 -119.5340 262° West 403 464 21,100 1,380 Climbing FlightAware
07:57PM 33.8240 -119.6560 263° West 411 473 22,600 900 Climbing FlightAware
07:58PM 33.8150 -119.7330 262° West 411 473 22,600  Level FlightAware
07:58PM 33.8060 -119.8100 262° West 411 473 22,600  Level FlightAware
07:59PM 33.7940 -119.9060 261° West 411 473 22,600  Level FlightAware
08:00PM 33.7850 -119.9830 262° West 411 473 22,600  Level FlightAware
08:01PM 33.7760 -120.0600 262° West 411 473 22,600 4,620 Level FlightAware
08:01PM 33.7589 -120.2761 262° West 433 498 30,000 4,020 Climbing Los Angeles Center
08:03PM 33.7414 -120.4261 262° West 443 510 31,400 1,440 Climbing Los Angeles Center
08:04PM 33.7214 -120.6053 262° West 448 516 33,400 1,500 Climbing Los Angeles Center
08:05PM 33.7081 -120.7225 262° West 446 513 34,500 1,260 Climbing Los Angeles Center
08:06PM 33.6842 -120.9236 262° West 438 504 36,100 1,200 Climbing Los Angeles Center
08:07PM 33.6683 -121.0683 263° West 436 502 37,000 420 Climbing Los Angeles Center
08:08PM 33.6511 -121.2100 262° West 431 496 37,000  Level Los Angeles Center
08:09PM 33.6342 -121.3517 262° West 430 495 37,000  Level Los Angeles Center
08:10PM 33.6175 -121.4922 262° West 427 491 37,000  Level Los Angeles Center
08:11PM 33.5994 -121.6336 261° West 428 493 37,000  Level Los Angeles Center
08:12PM 33.5789 -121.8042 262° West 431 496 37,000  Level Los Angeles Center
08:13PM 33.5622 -121.9453 262° West 430 495 37,000  Level Los Angeles Center
08:14PM 33.5439 -122.0878 261° West 433 498 37,000  Level Los Angeles Center
08:15PM 33.5272 -122.2311 262° West 434 499 37,000  Level Los Angeles Center
08:16PM 33.5061 -122.3736 260° West 436 502 37,000  Level Los Angeles Center
08:17PM 33.4875 -122.5175 261° West 437 503 37,000  Level Los Angeles Center
08:19PM 33.4468 -122.6957 258° West  Level FlightAware Approximate
08:26PM 33.2503 -123.6567 256° West  Level FlightAware Approximate
08:27PM 33.2213 -123.7936 256° West  Level FlightAware Approximate
08:28PM 33.1921 -123.9303 256° West  Level FlightAware Approximate
08:29PM 33.1628 -124.0670 256° West  Level FlightAware Approximate
08:30PM 33.1333 -124.2036 256° West  Level FlightAware Approximate
08:31PM 33.1037 -124.3401 256° West  Level FlightAware Approximate
08:32PM 33.0667 -124.4724 270° West  Level FlightAware Approximate
08:33PM 33.0458 -124.6101 255° West  Level FlightAware Approximate
08:33PM 33.0667 -124.5167 255° West 459 528 37,000  Level Oakland Oceanic (ODAPS)
08:34PM 33.0153 -124.7461 255° West  Level FlightAware Approximate
08:35PM 32.9846 -124.8821 255° West  Level FlightAware Approximate
08:36PM 32.9537 -125.0180 255° West  Level FlightAware Approximate
08:37PM 32.9227 -125.1541 255° West  Level FlightAware Approximate
08:38PM 32.8915 -125.2901 255° West  Level FlightAware Approximate
08:39PM 32.7994 -125.6871 254° West 459 528 37,000  Level FlightAware Transoceanic
08:40PM 32.7653 -125.8329 254° West 459 528 37,000  Level FlightAware Transoceanic
08:41PM 32.7309 -125.9786 254° West 459 528 37,000  Level FlightAware Transoceanic
08:42PM 32.6964 -126.1242 254° West 459 528 37,000  Level FlightAware Transoceanic
08:43PM 32.6618 -126.2696 254° West 459 528 37,000  Level FlightAware Transoceanic
08:44PM 32.6269 -126.4150 254° West 459 528 37,000  Level FlightAware Transoceanic
08:45PM 32.5919 -126.5602 254° West 459 528 37,000  Level FlightAware Transoceanic
08:46PM 32.5567 -126.7054 254° West 459 528 37,000  Level FlightAware Transoceanic
08:47PM 32.5214 -126.8504 254° West 459 528 37,000  Level FlightAware Transoceanic
08:48PM 32.4859 -126.9953 254° West 459 528 37,000  Level FlightAware Transoceanic
08:49PM 32.4502 -127.1401 254° West 459 528 37,000  Level FlightAware Transoceanic
08:50PM 32.4144 -127.2847 254° West 459 528 37,000  Level FlightAware Transoceanic
08:51PM 32.3784 -127.4293 254° West 459 528 37,000  Level FlightAware Transoceanic
08:52PM 32.3422 -127.5737 253° West 459 528 37,000  Level FlightAware Transoceanic
08:53PM 32.3059 -127.7180 253° West 459 528 37,000  Level FlightAware Transoceanic
08:54PM 32.2694 -127.8622 253° West 459 528 37,000  Level FlightAware Transoceanic
08:55PM 32.2327 -128.0063 253° West 459 528 37,000  Level FlightAware Transoceanic
08:56PM 32.1959 -128.1503 253° West 459 528 37,000  Level FlightAware Transoceanic
08:57PM 32.1589 -128.2941 253° West 459 528 37,000  Level FlightAware Transoceanic
08:58PM 32.1218 -128.4379 253° West 459 528 37,000  Level FlightAware Transoceanic
08:59PM 32.0844 -128.5815 253° West 459 528 37,000  Level FlightAware Transoceanic
09:00PM 32.0470 -128.7250 253° West 459 528 37,000  Level FlightAware Transoceanic
09:01PM 32.0093 -128.8684 253° West 459 528 37,000  Level FlightAware Transoceanic
09:02PM 31.9715 -129.0117 253° West 459 528 37,000  Level FlightAware Transoceanic
09:03PM 31.9336 -129.1548 253° West 459 528 37,000  Level FlightAware Transoceanic
09:04PM 31.8955 -129.2979 253° West 459 528 37,000  Level FlightAware Transoceanic
09:05PM 31.8572 -129.4408 252° West 459 528 37,000  Level FlightAware Transoceanic
09:06PM 31.8188 -129.5836 252° West 459 528 37,000  Level FlightAware Transoceanic
09:07PM 31.7802 -129.7263 252° West 459 528 37,000  Level FlightAware Transoceanic
09:08PM 31.7414 -129.8688 252° West 459 528 37,000  Level FlightAware Transoceanic
09:09PM 31.7025 -130.0112 252° West 459 528 37,000  Level FlightAware Transoceanic
09:10PM 31.6634 -130.1536 252° West 459 528 37,000  Level FlightAware Transoceanic
09:11PM 31.6242 -130.2958 252° West 459 528 37,000  Level FlightAware Transoceanic
09:12PM 31.5848 -130.4378 252° West 459 528 37,000  Level FlightAware Transoceanic
09:13PM 31.5452 -130.5798 252° West 459 528 37,000  Level FlightAware Transoceanic
09:14PM 31.5056 -130.7216 252° West 459 528 37,000  Level FlightAware Transoceanic
09:15PM 31.4657 -130.8634 252° West 459 528 37,000  Level FlightAware Transoceanic
09:16PM 31.4257 -131.0049 252° West 459 528 37,000  Level FlightAware Transoceanic
09:17PM 31.3855 -131.1464 252° West 459 528 37,000  Level FlightAware Transoceanic
09:18PM 31.3452 -131.2878 251° West 459 528 37,000  Level FlightAware Transoceanic
09:19PM 31.3047 -131.4290 251° West 459 528 37,000  Level FlightAware Transoceanic
09:20PM 31.2641 -131.5701 251° West 459 528 37,000  Level FlightAware Transoceanic
09:21PM 31.2233 -131.7111 251° West 459 528 37,000  Level FlightAware Transoceanic
09:22PM 31.1823 -131.8520 251° West 459 528 37,000  Level FlightAware Transoceanic
09:23PM 31.1413 -131.9927 251° West 459 528 37,000  Level FlightAware Transoceanic
09:24PM 31.1000 -132.1333 251° West 459 528 37,000  Level FlightAware Transoceanic
09:25PM 31.0577 -132.2770 251° West 459 528 37,000  Level FlightAware Transoceanic
09:26PM 31.0153 -132.4206 251° West 459 528 37,000  Level FlightAware Transoceanic
09:26PM 31.1000 -132.1333 251° West 468 539 37,000  Level Oakland Oceanic (ODAPS)
09:27PM 30.9727 -132.5640 251° West 459 528 37,000  Level FlightAware Transoceanic
09:28PM 30.9300 -132.7073 251° West 459 528 37,000  Level FlightAware Transoceanic
09:29PM 30.8871 -132.8505 251° West 459 528 37,000  Level FlightAware Transoceanic
09:30PM 30.8440 -132.9935 251° West 459 528 37,000  Level FlightAware Transoceanic
09:31PM 30.8008 -133.1365 251° West 459 528 37,000  Level FlightAware Transoceanic
09:32PM 30.7574 -133.2793 250° West 468 539 37,000  Level FlightAware Transoceanic
09:33PM 30.7139 -133.4219 250° West 468 539 37,000  Level FlightAware Transoceanic
09:34PM 30.6702 -133.5645 250° West 468 539 37,000  Level FlightAware Transoceanic
09:35PM 30.6263 -133.7069 250° West 468 539 37,000  Level FlightAware Transoceanic
09:36PM 30.5823 -133.8491 250° West 468 539 37,000  Level FlightAware Transoceanic
09:37PM 30.5382 -133.9913 250° West 468 539 37,000  Level FlightAware Transoceanic
09:38PM 30.4939 -134.1333 250° West 468 539 37,000  Level FlightAware Transoceanic
09:39PM 30.4494 -134.2752 250° West 468 539 37,000  Level FlightAware Transoceanic
09:40PM 30.4048 -134.4169 250° West 468 539 37,000  Level FlightAware Transoceanic
09:41PM 30.3600 -134.5586 250° West 468 539 37,000  Level FlightAware Transoceanic
09:42PM 30.3151 -134.7001 250° West 468 539 37,000  Level FlightAware Transoceanic
09:43PM 30.2700 -134.8414 250° West 468 539 37,000  Level FlightAware Transoceanic
09:44PM 30.2248 -134.9827 250° West 468 539 37,000  Level FlightAware Transoceanic
09:45PM 30.1794 -135.1238 250° West 468 539 37,000  Level FlightAware Transoceanic
09:46PM 30.1339 -135.2648 249° West 468 539 37,000  Level FlightAware Transoceanic
09:47PM 30.0882 -135.4056 249° West 468 539 37,000  Level FlightAware Transoceanic
09:48PM 30.0424 -135.5463 249° West 468 539 37,000  Level FlightAware Transoceanic
09:49PM 29.9964 -135.6869 249° West 468 539 37,000  Level FlightAware Transoceanic
09:50PM 29.9503 -135.8274 249° West 468 539 37,000  Level FlightAware Transoceanic
09:51PM 29.9040 -135.9677 249° West 468 539 37,000  Level FlightAware Transoceanic
09:52PM 29.8576 -136.1079 249° West 468 539 37,000  Level FlightAware Transoceanic
09:53PM 29.8110 -136.2479 249° West 468 539 37,000  Level FlightAware Transoceanic
09:54PM 29.7643 -136.3879 249° West 468 539 37,000  Level FlightAware Transoceanic
09:55PM 29.7174 -136.5277 249° West 468 539 37,000  Level FlightAware Transoceanic
09:56PM 29.6704 -136.6673 249° West 468 539 37,000  Level FlightAware Transoceanic
09:57PM 29.6233 -136.8069 249° West 468 539 37,000  Level FlightAware Transoceanic
09:58PM 29.5760 -136.9463 249° West 468 539 37,000  Level FlightAware Transoceanic
09:59PM 29.5285 -137.0856 249° West 468 539 37,000  Level FlightAware Transoceanic
10:00PM 29.4809 -137.2247 249° West 468 539 37,000  Level FlightAware Transoceanic
10:01PM 29.4332 -137.3638 248° West 468 539 37,000  Level FlightAware Transoceanic
10:02PM 29.3853 -137.5026 248° West 468 539 37,000  Level FlightAware Transoceanic
10:03PM 29.3373 -137.6414 248° West 468 539 37,000  Level FlightAware Transoceanic
10:04PM 29.2891 -137.7800 248° West 468 539 37,000  Level FlightAware Transoceanic
10:05PM 29.2408 -137.9185 248° West 468 539 37,000  Level FlightAware Transoceanic
10:06PM 29.1923 -138.0569 248° West 468 539 37,000  Level FlightAware Transoceanic
10:07PM 29.1437 -138.1951 248° West 468 539 37,000  Level FlightAware Transoceanic
10:08PM 29.0950 -138.3332 248° West 468 539 37,000  Level FlightAware Transoceanic
10:09PM 29.0461 -138.4712 248° West 468 539 37,000  Level FlightAware Transoceanic
10:10PM 28.9971 -138.6090 248° West 468 539 37,000  Level FlightAware Transoceanic
10:11PM 28.9479 -138.7467 248° West 468 539 37,000  Level FlightAware Transoceanic
10:12PM 28.8986 -138.8843 248° West 468 539 37,000  Level FlightAware Transoceanic
10:13PM 28.8492 -139.0218 248° West 468 539 37,000  Level FlightAware Transoceanic
10:14PM 28.7996 -139.1591 248° West 468 539 37,000  Level FlightAware Transoceanic
10:15PM 28.7499 -139.2963 248° West 468 539 37,000  Level FlightAware Transoceanic
10:16PM 28.7000 -139.4333 247° West 468 539 37,000  Level FlightAware Transoceanic
10:17PM 28.6512 -139.5659 247° West 468 539 37,000  Level FlightAware Transoceanic
10:18PM 28.6023 -139.6984 247° West 468 539 37,000  Level FlightAware Transoceanic
10:19PM 28.5532 -139.8308 247° West 468 539 37,000  Level FlightAware Transoceanic
10:20PM 28.5040 -139.9630 247° West 468 539 37,000  Level FlightAware Transoceanic
10:21PM 28.4547 -140.0951 247° West 468 539 37,000  Level FlightAware Transoceanic
10:22PM 28.4053 -140.2271 247° West 468 539 37,000  Level FlightAware Transoceanic
10:23PM 28.3557 -140.3590 247° West 468 539 37,000  Level FlightAware Transoceanic
10:24PM 28.3060 -140.4907 247° West 468 539 37,000  Level FlightAware Transoceanic
10:25PM 28.2562 -140.6223 247° West 468 539 37,000  Level FlightAware Transoceanic
10:26PM 28.2063 -140.7538 247° West 468 539 37,000  Level FlightAware Transoceanic
10:26PM 28.7000 -139.4333 247° West 473 544 37,000  Level Oakland Oceanic (ODAPS)
10:27PM 28.1562 -140.8852 247° West 468 539 37,000  Level FlightAware Transoceanic
10:28PM 28.1060 -141.0165 247° West 468 539 37,000  Level FlightAware Transoceanic
10:29PM 28.0557 -141.1476 246° West 468 539 37,000  Level FlightAware Transoceanic
10:30PM 28.0053 -141.2786 246° West 468 539 37,000  Level FlightAware Transoceanic
10:31PM 27.9547 -141.4095 246° West 468 539 37,000  Level FlightAware Transoceanic
10:32PM 27.8186 -141.7596 246° West 473 544 37,000  Level FlightAware Transoceanic
10:33PM 27.7655 -141.8953 246° West 473 544 37,000  Level FlightAware Transoceanic
10:34PM 27.7123 -142.0308 246° West 473 544 37,000  Level FlightAware Transoceanic
10:35PM 27.6590 -142.1662 246° West 473 544 37,000  Level FlightAware Transoceanic
10:36PM 27.6055 -142.3014 246° West 473 544 37,000  Level FlightAware Transoceanic
10:37PM 27.5520 -142.4365 246° West 473 544 37,000  Level FlightAware Transoceanic
10:38PM 27.4982 -142.5715 246° West 473 544 37,000  Level FlightAware Transoceanic
10:39PM 27.4444 -142.7064 246° West 473 544 37,000  Level FlightAware Transoceanic
10:40PM 27.3904 -142.8411 246° West 473 544 37,000  Level FlightAware Transoceanic
10:41PM 27.3363 -142.9757 246° West 473 544 37,000  Level FlightAware Transoceanic
10:42PM 27.2820 -143.1101 246° West 473 544 37,000  Level FlightAware Transoceanic
10:43PM 27.2277 -143.2445 245° Southwest 473 544 37,000  Level FlightAware Transoceanic
10:44PM 27.1732 -143.3786 245° Southwest 473 544 37,000  Level FlightAware Transoceanic
10:45PM 27.1186 -143.5127 245° Southwest 473 544 37,000  Level FlightAware Transoceanic
10:46PM 27.0638 -143.6467 245° Southwest 473 544 37,000  Level FlightAware Transoceanic
10:47PM 27.0089 -143.7805 245° Southwest 473 544 37,000  Level FlightAware Transoceanic
10:48PM 26.9540 -143.9141 245° Southwest 473 544 37,000  Level FlightAware Transoceanic
10:49PM 26.8988 -144.0477 245° Southwest 473 544 37,000  Level FlightAware Transoceanic
10:50PM 26.8436 -144.1811 245° Southwest 473 544 37,000  Level FlightAware Transoceanic
10:51PM 26.7882 -144.3143 245° Southwest 473 544 37,000  Level FlightAware Transoceanic
10:52PM 26.7327 -144.4475 245° Southwest 473 544 37,000  Level FlightAware Transoceanic
10:53PM 26.6771 -144.5805 245° Southwest 473 544 37,000  Level FlightAware Transoceanic
10:54PM 26.6213 -144.7134 245° Southwest 473 544 37,000  Level FlightAware Transoceanic
10:55PM 26.5654 -144.8462 245° Southwest 473 544 37,000  Level FlightAware Transoceanic
10:56PM 26.5094 -144.9788 245° Southwest 473 544 37,000  Level FlightAware Transoceanic
10:57PM 26.4533 -145.1113 245° Southwest 473 544 37,000  Level FlightAware Transoceanic
10:58PM 26.3971 -145.2437 245° Southwest 473 544 37,000  Level FlightAware Transoceanic
10:59PM 26.3407 -145.3759 245° Southwest 473 544 37,000  Level FlightAware Transoceanic
11:00PM 26.2842 -145.5080 244° Southwest 473 544 37,000  Level FlightAware Transoceanic
11:01PM 26.2276 -145.6400 244° Southwest 473 544 37,000  Level FlightAware Transoceanic
11:02PM 26.1709 -145.7719 244° Southwest 473 544 37,000  Level FlightAware Transoceanic
11:03PM 26.1140 -145.9036 244° Southwest 473 544 37,000  Level FlightAware Transoceanic
11:04PM 26.0571 -146.0352 244° Southwest 473 544 37,000  Level FlightAware Transoceanic
11:05PM 26.0000 -146.1667 244° Southwest 473 544 37,000  Level FlightAware Transoceanic
11:06PM 25.9482 -146.2861 244° Southwest 473 544 37,000  Level FlightAware Transoceanic
11:07PM 25.8964 -146.4054 244° Southwest 473 544 37,000  Level FlightAware Transoceanic
11:08PM 25.8445 -146.5246 244° Southwest 473 544 37,000  Level FlightAware Transoceanic
11:09PM 25.7924 -146.6438 244° Southwest 473 544 37,000 1,680 Level FlightAware Transoceanic
11:09PM 26.0000 -146.1667 244° Southwest 428 493 39,000  Climbing Oakland Oceanic (ODAPS)
11:10PM 25.7403 -146.7628 244° Southwest 473 544 37,000 -1,140 Descending FlightAware Transoceanic
11:11PM 25.6881 -146.8817 244° Southwest 473 544 37,000  Level FlightAware Transoceanic
11:12PM 25.6357 -147.0005 244° Southwest 473 544 37,000  Level FlightAware Transoceanic
11:13PM 25.5833 -147.1192 244° Southwest 473 544 37,000  Level FlightAware Transoceanic
11:14PM 25.5308 -147.2377 244° Southwest 473 544 37,000 960 Level FlightAware Transoceanic
11:15PM 25.5833 -147.1192 244° Southwest 428 493 39,000 960 Climbing FlightAware Transoceanic
11:16PM 25.5308 -147.2377 244° Southwest 428 493 39,000  Level FlightAware Transoceanic
11:17PM 25.4782 -147.3562 244° Southwest 428 493 39,000  Level FlightAware Transoceanic
11:18PM 25.4255 -147.4746 244° Southwest 428 493 39,000  Level FlightAware Transoceanic
11:19PM 25.3727 -147.5929 244° Southwest 428 493 39,000  Level FlightAware Transoceanic
11:20PM 25.3197 -147.7111 244° Southwest 428 493 39,000  Level FlightAware Transoceanic
11:21PM 25.2668 -147.8292 244° Southwest 428 493 39,000  Level FlightAware Transoceanic
11:22PM 25.2137 -147.9471 244° Southwest 428 493 39,000  Level FlightAware Transoceanic
11:23PM 25.1605 -148.0650 243° Southwest 428 493 39,000  Level FlightAware Transoceanic
11:24PM 25.1072 -148.1828 243° Southwest 428 493 39,000  Level FlightAware Transoceanic
11:25PM 25.0538 -148.3004 243° Southwest 428 493 39,000  Level FlightAware Transoceanic
11:26PM 25.0004 -148.4180 243° Southwest 428 493 39,000  Level FlightAware Transoceanic
11:27PM 24.9468 -148.5354 243° Southwest 428 493 39,000  Level FlightAware Transoceanic
11:28PM 24.8932 -148.6528 243° Southwest 428 493 39,000  Level FlightAware Transoceanic
11:29PM 24.8395 -148.7701 243° Southwest 428 493 39,000  Level FlightAware Transoceanic
11:30PM 24.7856 -148.8872 243° Southwest 428 493 39,000  Level FlightAware Transoceanic
11:31PM 24.7317 -149.0043 243° Southwest 428 493 39,000  Level FlightAware Transoceanic
11:32PM 24.6777 -149.1212 243° Southwest 428 493 39,000  Level FlightAware Transoceanic
11:33PM 24.6236 -149.2381 243° Southwest 428 493 39,000  Level FlightAware Transoceanic
11:34PM 24.5694 -149.3548 243° Southwest 428 493 39,000  Level FlightAware Transoceanic
11:35PM 24.5151 -149.4714 243° Southwest 428 493 39,000  Level FlightAware Transoceanic
11:36PM 24.4608 -149.5880 243° Southwest 428 493 39,000  Level FlightAware Transoceanic
11:37PM 24.4063 -149.7044 243° Southwest 428 493 39,000  Level FlightAware Transoceanic
11:38PM 24.3517 -149.8208 243° Southwest 428 493 39,000  Level FlightAware Transoceanic
11:39PM 24.2971 -149.9370 243° Southwest 428 493 39,000  Level FlightAware Transoceanic
11:40PM 24.2424 -150.0531 243° Southwest 428 493 39,000  Level FlightAware Transoceanic
11:41PM 24.1876 -150.1692 243° Southwest 428 493 39,000  Level FlightAware Transoceanic
11:42PM 24.1327 -150.2851 243° Southwest 428 493 39,000  Level FlightAware Transoceanic
11:43PM 24.0777 -150.4010 243° Southwest 428 493 39,000  Level FlightAware Transoceanic
11:44PM 24.0226 -150.5167 242° Southwest 428 493 39,000  Level FlightAware Transoceanic
11:45PM 23.9674 -150.6324 242° Southwest 428 493 39,000  Level FlightAware Transoceanic
11:46PM 23.9122 -150.7479 242° Southwest 428 493 39,000  Level FlightAware Transoceanic
11:47PM 23.8568 -150.8634 242° Southwest 428 493 39,000  Level FlightAware Transoceanic
11:48PM 23.8014 -150.9787 242° Southwest 428 493 39,000  Level FlightAware Transoceanic
11:49PM 23.7459 -151.0940 242° Southwest 428 493 39,000  Level FlightAware Transoceanic
11:50PM 23.6903 -151.2091 242° Southwest 428 493 39,000  Level FlightAware Transoceanic
11:51PM 23.6346 -151.3242 242° Southwest 428 493 39,000  Level FlightAware Transoceanic
11:52PM 23.5789 -151.4391 242° Southwest 428 493 39,000  Level FlightAware Transoceanic
11:53PM 23.5230 -151.5540 242° Southwest 428 493 39,000  Level FlightAware Transoceanic
11:54PM 23.4671 -151.6687 242° Southwest 428 493 39,000  Level FlightAware Transoceanic
11:55PM 23.4111 -151.7834 242° Southwest 428 493 39,000  Level FlightAware Transoceanic
11:56PM 23.3550 -151.8980 242° Southwest 428 493 39,000  Level FlightAware Transoceanic
11:57PM 23.2988 -152.0124 242° Southwest 428 493 39,000  Level FlightAware Transoceanic
11:58PM 23.2425 -152.1268 242° Southwest 428 493 39,000  Level FlightAware Transoceanic
11:59PM 23.1862 -152.2411 242° Southwest 428 493 39,000  Level FlightAware Transoceanic
12:00AM 23.1298 -152.3553 242° Southwest 428 493 39,000  Level FlightAware Transoceanic
12:01AM 23.0733 -152.4693 242° Southwest 428 493 39,000  Level FlightAware Transoceanic
12:02AM 23.0167 -152.5833 242° Southwest 428 493 39,000 -1,320 Level FlightAware Transoceanic
12:02AM 23.0000 -152.6333 242° Southwest 460 529 37,000  Descending Honolulu Center
12:03AM 22.9629 -152.6921 242° Southwest 428 493 39,000  Climbing FlightAware Transoceanic
12:03AM 22.9333 -152.7500 238° Southwest 420 483 37,000  Descending Honolulu Center
12:04AM 22.9091 -152.8009 242° Southwest 428 493 39,000 1,380 Climbing FlightAware Transoceanic
12:05AM 22.8552 -152.9095 242° Southwest 428 493 39,000 -1,320 Level FlightAware Transoceanic
12:05AM 22.8500 -152.9833 249° West 420 483 37,000  Descending Honolulu Center
12:06AM 22.8012 -153.0180 242° Southwest 428 493 39,000  Climbing FlightAware Transoceanic
12:06AM 22.8167 -153.1000 253° West 420 483 37,000  Descending Honolulu Center
12:07AM 22.7471 -153.1265 242° Southwest 428 493 39,000  Climbing FlightAware Transoceanic
12:07AM 22.7833 -153.2167 253° West 420 483 37,000 -1,320 Descending Honolulu Center
12:08AM 22.7500 -153.3333 253° West 420 483 37,000  Level Honolulu Center
12:09AM 22.7167 -153.4667 255° West 420 483 37,000  Level Honolulu Center
12:10AM 22.6667 -153.5833 245° Southwest 420 483 37,000  Level Honolulu Center
12:11AM 22.6333 -153.7000 253° West 420 483 37,000  Level Honolulu Center
12:12AM 22.6000 -153.8167 253° West 420 483 37,000  Level Honolulu Center
12:13AM 22.5667 -153.9333 253° West 410 472 37,000  Level Honolulu Center
12:14AM 22.5333 -154.0500 253° West 420 483 37,000  Level Honolulu Center
12:15AM 22.5000 -154.1667 253° West 410 472 37,000  Level Honolulu Center
12:16AM 22.4667 -154.2833 253° West 410 472 37,000  Level Honolulu Center
12:17AM 22.4167 -154.4000 245° Southwest 410 472 37,000  Level Honolulu Center
12:18AM 22.3833 -154.5167 253° West 420 483 37,000  Level Honolulu Center
12:19AM 22.3500 -154.6333 253° West 410 472 37,000  Level Honolulu Center
12:20AM 22.3167 -154.7500 253° West 410 472 37,000  Level Honolulu Center
12:21AM 22.2667 -154.8667 245° Southwest 410 472 37,000  Level Honolulu Center
12:22AM 22.2333 -154.9833 253° West 410 472 37,000  Level Honolulu Center
12:23AM 22.2000 -155.1167 255° West 420 483 37,000  Level Honolulu Center
12:24AM 22.1667 -155.2333 253° West 420 483 37,000  Level Honolulu Center
12:25AM 22.1167 -155.3500 245° Southwest 420 483 37,000  Level Honolulu Center
12:26AM 22.0833 -155.4667 253° West 420 483 37,000  Level Honolulu Center
12:27AM 22.0500 -155.5833 253° West 420 483 37,000  Level Honolulu Center
12:28AM 22.0000 -155.7000 245° Southwest 420 483 37,000 960 Level Honolulu Center
12:29AM 21.9667 -155.8167 253° West 420 483 39,000 960 Climbing Honolulu Center
12:30AM 21.9333 -155.9333 253° West 420 483 39,000  Level Honolulu Center
12:31AM 21.8833 -156.0500 245° Southwest 420 483 39,000 -300 Level Honolulu Center
12:32AM 21.8500 -156.1667 253° West 420 483 38,500 -1,620 Descending Honolulu Center
12:33AM 21.8167 -156.2833 253° West 420 483 35,800 -2,880 Descending Honolulu Center
12:34AM 21.7667 -156.4167 248° West 430 495 32,800 -2,700 Descending Honolulu Center
12:35AM 21.7333 -156.5333 253° West 440 506 30,400 -2,400 Descending Honolulu Center
12:36AM 21.6833 -156.6667 248° West 440 506 28,000 -2,400 Descending Honolulu Center
12:37AM 21.6500 -156.8000 255° West 420 483 25,600 -2,280 Descending Honolulu Center
12:38AM 21.6000 -156.9167 245° Southwest 420 483 23,500 -2,220 Descending Honolulu Center
12:44AM 21.3730 -157.5600 245° Southwest 355 409 10,500 -1,920 Descending FlightAware
12:45AM 21.3240 -157.6770 246° West 302 348 9,600 -900 Descending FlightAware
12:46AM 21.3060 -157.7310 250° West 295 339 8,700 -1,620 Descending FlightAware
12:46AM 21.3020 -157.7440 252° West 295 339 8,400 -600 Descending FlightAware
12:48AM 21.2670 -157.8440 249° West 279 321 7,900 -360 Descending FlightAware
12:48AM 21.2630 -157.8670 259° West 259 298 7,900 -300 Level FlightAware
12:48AM 21.2620 -157.9010 268° West 254 292 7,700 -240 Descending FlightAware
12:49AM 21.2610 -157.9320 268° West 254 292 7,700  Level FlightAware